Time;durP1;ratioP1;P1;durP2;ratioP2;P2;SDS_P1;SDS_P2;PMS_P1;PMS_P2;Temp;Humidity;BMP_temperature;BMP_pressure;BME280_temperature;BME280_humidity;BME280_pressure;Samples;Min_cycle;Max_cycle;Signal;HPM_P1;HPM_P2
2022/12/01 00:01:05;;;;;;;9.45;5.15;;;10.30;71.60;;;;;;2315788;55;20920;-74
2022/12/01 00:03:32;;;;;;;10.85;5.60;;;10.20;71.60;;;;;;2316337;55;21011;-73
2022/12/01 00:06:06;;;;;;;9.82;5.78;;;10.30;71.70;;;;;;2315810;55;20932;-76
2022/12/01 00:08:34;;;;;;;10.75;5.70;;;10.20;71.40;;;;;;2315776;55;20933;-73
2022/12/01 00:11:08;;;;;;;9.32;5.78;;;10.20;71.50;;;;;;2356508;54;21018;-74
2022/12/01 00:13:35;;;;;;;10.52;6.20;;;10.20;71.40;;;;;;2316243;55;21832;-74
2022/12/01 00:16:10;;;;;;;12.15;6.80;;;10.20;71.40;;;;;;2315595;55;21023;-74
2022/12/01 00:18:37;;;;;;;10.65;6.37;;;10.20;71.20;;;;;;2353273;54;21012;-76
2022/12/01 00:21:11;;;;;;;9.32;5.47;;;10.10;71.20;;;;;;2375462;54;21034;-73
2022/12/01 00:23:44;;;;;;;10.35;5.87;;;10.10;71.20;;;;;;2315350;55;21468;-76
2022/12/01 00:26:12;;;;;;;11.75;5.70;;;10.00;71.20;;;;;;2294289;55;21746;-76
2022/12/01 00:28:38;;;;;;;11.02;5.75;;;10.00;71.20;;;;;;2316382;54;21325;-75
2022/12/01 00:31:08;;;;;;;13.25;6.70;;;10.00;71.30;;;;;;2522036;54;21126;-74
2022/12/01 00:33:35;;;;;;;12.00;6.20;;;10.00;71.20;;;;;;2316287;55;21853;-77
2022/12/01 00:36:03;;;;;;;10.82;6.15;;;10.00;71.20;;;;;;2555659;54;21002;-76
2022/12/01 00:38:31;;;;;;;12.77;5.97;;;9.90;72.30;;;;;;2315215;55;21021;-73
2022/12/01 00:40:58;;;;;;;11.38;6.03;;;9.90;72.30;;;;;;2511461;54;21052;-74
2022/12/01 00:43:25;;;;;;;13.15;7.00;;;9.90;72.30;;;;;;2312519;55;21659;-75
2022/12/01 00:45:52;;;;;;;10.63;5.82;;;9.80;72.20;;;;;;2342825;54;20967;-75
2022/12/01 00:48:18;;;;;;;10.70;6.25;;;9.80;72.20;;;;;;2297820;54;20955;-73
2022/12/01 00:50:49;;;;;;;12.18;5.75;;;9.80;72.40;;;;;;2431273;54;21000;-76
2022/12/01 00:53:16;;;;;;;9.85;5.80;;;9.80;72.40;;;;;;2313490;54;21221;-74
2022/12/01 00:55:42;;;;;;;11.65;5.87;;;9.70;72.30;;;;;;2355551;53;1314979;-74
2022/12/01 00:58:09;;;;;;;11.52;6.30;;;9.70;72.30;;;;;;2316401;54;20955;-73
2022/12/01 01:00:37;;;;;;;11.73;6.07;;;9.70;72.30;;;;;;2315657;55;21754;-77
2022/12/01 01:03:05;;;;;;;10.25;5.20;;;9.70;72.30;;;;;;2315408;55;20932;-74
2022/12/01 01:05:40;;;;;;;12.20;6.12;;;9.60;72.30;;;;;;2314903;55;21899;-74
2022/12/01 01:08:09;;;;;;;10.82;5.62;;;9.60;72.30;;;;;;2314973;55;20972;-73
2022/12/01 01:10:38;;;;;;;14.40;6.07;;;9.60;72.40;;;;;;2319755;55;20901;-73
2022/12/01 01:13:04;;;;;;;11.12;5.60;;;9.60;72.40;;;;;;2556530;54;20959;-74
2022/12/01 01:15:31;;;;;;;15.55;6.35;;;9.60;72.40;;;;;;2316166;54;21003;-75
2022/12/01 01:17:59;;;;;;;14.30;6.85;;;9.50;72.30;;;;;;2315961;55;21377;-72
2022/12/01 01:20:26;;;;;;;11.32;5.95;;;9.50;72.30;;;;;;2316365;55;20923;-76
2022/12/01 01:22:52;;;;;;;12.65;6.70;;;9.50;72.30;;;;;;2315921;55;20931;-76
2022/12/01 01:25:18;;;;;;;10.48;5.25;;;9.50;72.30;;;;;;2411996;54;20946;-75
2022/12/01 01:27:49;;;;;;;12.18;6.22;;;9.50;72.40;;;;;;2355053;54;21825;-73
2022/12/01 01:30:17;;;;;;;13.85;6.30;;;9.40;72.40;;;;;;2354849;54;21881;-76
2022/12/01 01:32:43;;;;;;;12.00;6.07;;;9.40;72.50;;;;;;2315347;55;21035;-75
2022/12/01 01:35:11;;;;;;;12.35;5.72;;;9.40;72.60;;;;;;2320445;55;21325;-75
2022/12/01 01:37:38;;;;;;;12.57;5.93;;;9.40;72.70;;;;;;2322369;54;21816;-76
2022/12/01 01:40:06;;;;;;;12.10;6.18;;;9.40;72.80;;;;;;2315975;55;21025;-76
2022/12/01 01:42:32;;;;;;;11.43;5.75;;;9.40;72.90;;;;;;2316118;55;20979;-74
2022/12/01 01:44:59;;;;;;;12.25;5.70;;;9.40;72.90;;;;;;2315461;55;20951;-73
2022/12/01 01:47:38;;;;;;;12.02;5.90;;;9.40;72.80;;;;;;2555414;54;21020;-73
2022/12/01 01:50:10;;;;;;;11.80;5.50;;;9.40;72.60;;;;;;2328458;54;20943;-73
2022/12/01 01:52:40;;;;;;;12.23;5.97;;;9.40;72.50;;;;;;2314542;55;20971;-73
2022/12/01 01:55:09;;;;;;;11.82;6.18;;;9.40;72.60;;;;;;2310683;55;21071;-73
2022/12/01 01:57:35;;;;;;;11.88;6.20;;;9.40;72.40;;;;;;2435560;54;20955;-73
2022/12/01 02:00:06;;;;;;;12.63;6.10;;;9.40;72.50;;;;;;2314447;55;20999;-75
2022/12/01 02:02:39;;;;;;;12.50;6.28;;;9.30;72.40;;;;;;2315048;55;21008;-73
2022/12/01 02:05:09;;;;;;;13.02;5.57;;;9.30;72.40;;;;;;2556095;54;20987;-73
2022/12/01 02:07:39;;;;;;;10.80;5.30;;;9.30;72.40;;;;;;2316068;54;21023;-74
2022/12/01 02:10:06;;;;;;;11.85;6.03;;;9.30;72.40;;;;;;2319284;54;20986;-72
2022/12/01 02:12:54;;;;;;;12.52;6.15;;;9.30;72.50;;;;;;2316820;55;20991;-74
2022/12/01 02:17:03;;;;;;;12.55;6.12;;;9.30;72.20;;;;;;2401121;54;20931;-74
2022/12/01 02:26:23;;;;;;;11.80;5.20;;;9.20;71.80;;;;;;2315133;55;20996;-74
2022/12/01 02:30:39;;;;;;;8.68;3.80;;;9.20;71.50;;;;;;2588656;53;21056;-76
2022/12/01 02:33:46;;;;;;;9.00;3.92;;;9.20;71.50;;;;;;2342800;54;20941;-75
2022/12/01 02:36:35;;;;;;;10.57;4.70;;;9.20;71.90;;;;;;2341992;54;20941;-75
2022/12/01 02:39:21;;;;;;;10.00;4.47;;;9.20;71.90;;;;;;2342646;54;21706;-73
2022/12/01 02:42:00;;;;;;;13.25;4.60;;;9.10;72.30;;;;;;2555635;54;20971;-76
2022/12/01 02:44:33;;;;;;;9.80;3.97;;;9.10;72.20;;;;;;2556069;54;20963;-76
2022/12/01 02:47:04;;;;;;;9.30;4.22;;;9.10;72.40;;;;;;2315147;55;21003;-76
2022/12/01 02:49:36;;;;;;;11.48;5.30;;;9.00;72.30;;;;;;2556796;54;21020;-76
2022/12/01 02:52:03;;;;;;;10.93;4.80;;;9.00;72.90;;;;;;2315564;55;21053;-72
2022/12/01 02:54:30;;;;;;;11.10;5.03;;;9.00;72.30;;;;;;2316113;55;21014;-74
2022/12/01 02:56:56;;;;;;;10.38;4.68;;;9.00;72.30;;;;;;2556328;54;20955;-75
2022/12/01 02:59:23;;;;;;;9.77;4.62;;;9.00;72.30;;;;;;2316036;55;20935;-72
2022/12/01 03:03:41;;;;;;;10.20;4.85;;;9.00;72.30;;;;;;2316259;55;21011;-76
2022/12/01 03:06:43;;;;;;;10.02;4.60;;;9.00;71.90;;;;;;2315993;55;20990;-76
2022/12/01 03:10:47;;;;;;;8.80;4.00;;;9.00;71.80;;;;;;2314779;55;20999;-73
2022/12/01 03:16:32;;;;;;;8.25;3.55;;;8.90;71.30;;;;;;2315973;54;20971;-75
2022/12/01 03:32:16;;;;;;;7.55;3.35;;;8.90;71.20;;;;;;2315880;54;20947;-72
2022/12/01 03:35:04;;;;;;;5.95;2.35;;;8.80;71.90;;;;;;2561217;52;23689;-75
2022/12/01 03:39:03;;;;;;;6.93;3.03;;;8.80;72.10;;;;;;2572610;53;21013;-76
2022/12/01 03:41:41;;;;;;;7.40;3.00;;;8.70;71.50;;;;;;2337136;53;21811;-75
2022/12/01 03:44:16;;;;;;;7.45;3.05;;;8.70;72.30;;;;;;2356557;53;21014;-74
2022/12/01 03:46:49;;;;;;;8.13;3.17;;;8.70;72.60;;;;;;2515339;52;20960;-74
2022/12/01 03:49:16;;;;;;;11.45;4.75;;;8.70;72.60;;;;;;2603468;52;21010;-76
2022/12/01 03:52:07;;;;;;;7.37;3.53;;;8.70;72.90;;;;;;2483299;52;20954;-76
2022/12/01 03:56:46;;;;;;;6.15;2.42;;;8.70;72.70;;;;;;2365595;53;20978;-74
2022/12/01 03:59:12;;;;;;;5.72;2.53;;;8.70;72.50;;;;;;2617731;52;20882;-73
2022/12/01 04:01:40;;;;;;;4.97;2.25;;;8.80;72.90;;;;;;2366683;53;20990;-76
2022/12/01 04:04:07;;;;;;;5.78;2.75;;;8.80;72.90;;;;;;2565747;52;21002;-73
2022/12/01 04:06:34;;;;;;;5.95;2.45;;;8.70;72.80;;;;;;2365750;53;20926;-74
2022/12/01 04:09:01;;;;;;;7.03;3.35;;;8.70;72.60;;;;;;2497814;52;21483;-75
2022/12/01 04:14:12;;;;;;;7.80;3.70;;;8.70;72.50;;;;;;2542573;52;21799;-74
2022/12/01 04:16:39;;;;;;;8.75;4.03;;;8.70;72.40;;;;;;2432135;52;20990;-75
2022/12/01 04:19:06;;;;;;;9.20;4.22;;;8.70;72.50;;;;;;2617518;52;20946;-74
2022/12/01 04:21:32;;;;;;;8.23;4.25;;;8.70;72.60;;;;;;2414820;52;21391;-73
2022/12/01 04:23:59;;;;;;;8.05;4.10;;;8.70;72.70;;;;;;2617864;52;20946;-76
2022/12/01 04:26:31;;;;;;;7.30;3.58;;;8.70;72.80;;;;;;2366398;53;21763;-77
2022/12/01 04:28:59;;;;;;;8.70;3.53;;;8.80;72.90;;;;;;2607944;52;20930;-73
2022/12/01 04:31:25;;;;;;;6.50;3.28;;;8.80;72.90;;;;;;2366295;53;21033;-74
2022/12/01 04:33:53;;;;;;;7.32;3.33;;;8.80;72.90;;;;;;2377246;52;21046;-73
2022/12/01 04:36:20;;;;;;;7.65;3.50;;;8.70;72.60;;;;;;2366148;53;21892;-75
2022/12/01 04:38:51;;;;;;;7.18;3.40;;;8.80;72.60;;;;;;2366452;53;20938;-74
2022/12/01 04:41:18;;;;;;;6.75;3.28;;;8.70;72.30;;;;;;2365821;53;20928;-76
2022/12/01 04:43:45;;;;;;;7.15;3.62;;;8.70;72.20;;;;;;2553666;52;20918;-74
2022/12/01 04:46:11;;;;;;;10.95;4.50;;;8.70;72.10;;;;;;2364644;53;21464;-75
2022/12/01 04:48:39;;;;;;;9.55;4.85;;;8.70;72.00;;;;;;2365248;53;20926;-74
2022/12/01 04:51:07;;;;;;;10.82;5.12;;;8.70;71.80;;;;;;2365829;53;20952;-74
2022/12/01 04:53:35;;;;;;;11.45;5.55;;;8.70;71.60;;;;;;2616847;52;20926;-76
2022/12/01 04:56:02;;;;;;;9.85;4.57;;;8.70;71.50;;;;;;2613503;52;20915;-74
2022/12/01 04:58:29;;;;;;;12.25;6.10;;;8.60;71.40;;;;;;2547674;52;20926;-76
2022/12/01 05:01:31;;;;;;;9.75;5.00;;;8.60;71.40;;;;;;2365247;53;21823;-76
2022/12/01 05:03:57;;;;;;;9.88;4.32;;;8.60;70.80;;;;;;2608831;52;20978;-75
2022/12/01 05:06:27;;;;;;;9.65;4.97;;;8.50;71.50;;;;;;2364703;53;20918;-73
2022/12/01 05:08:56;;;;;;;12.02;5.35;;;8.50;71.70;;;;;;2364992;53;21839;-74
2022/12/01 05:11:22;;;;;;;10.90;5.37;;;8.50;71.70;;;;;;2616222;52;20907;-74
2022/12/01 05:13:53;;;;;;;11.93;5.97;;;8.50;71.60;;;;;;2497485;52;20978;-75
2022/12/01 05:16:36;;;;;;;11.68;5.70;;;8.50;71.50;;;;;;2365313;53;20974;-76
2022/12/01 05:21:48;;;;;;;9.32;4.80;;;8.40;71.40;;;;;;2365686;53;20922;-73
2022/12/01 05:24:14;;;;;;;8.98;4.55;;;8.40;71.50;;;;;;2376352;52;20922;-76
2022/12/01 05:26:41;;;;;;;8.27;3.97;;;8.30;71.50;;;;;;2533643;52;21006;-74
2022/12/01 05:29:07;;;;;;;9.80;4.57;;;8.30;71.70;;;;;;2383188;52;21434;-75
2022/12/01 05:31:34;;;;;;;8.65;4.62;;;8.30;71.90;;;;;;2365197;53;21478;-76
2022/12/01 05:34:00;;;;;;;8.38;4.50;;;8.30;71.90;;;;;;2447046;52;20958;-76
2022/12/01 05:36:27;;;;;;;9.52;4.72;;;8.30;71.90;;;;;;2365284;53;20983;-73
2022/12/01 05:38:54;;;;;;;10.27;5.05;;;8.30;71.90;;;;;;2616595;52;21421;-73
2022/12/01 05:41:20;;;;;;;10.50;5.22;;;8.30;71.80;;;;;;2367547;53;21791;-74
2022/12/01 05:43:47;;;;;;;10.27;4.90;;;8.30;71.80;;;;;;2616023;52;20975;-73
2022/12/01 05:46:14;;;;;;;10.73;4.85;;;8.30;71.90;;;;;;2372282;52;21029;-73
2022/12/01 05:48:42;;;;;;;10.68;5.57;;;8.30;71.80;;;;;;2616494;52;20990;-73
2022/12/01 05:51:09;;;;;;;10.20;5.00;;;8.20;71.70;;;;;;2596534;52;21002;-76
2022/12/01 05:53:36;;;;;;;10.43;5.03;;;8.30;71.80;;;;;;2616396;52;20926;-75
2022/12/01 05:56:02;;;;;;;8.75;4.35;;;8.20;71.70;;;;;;2392514;52;20938;-75
2022/12/01 05:58:29;;;;;;;10.68;4.80;;;8.20;71.90;;;;;;2616312;52;21783;-73
2022/12/01 06:00:56;;;;;;;11.38;5.10;;;8.20;71.90;;;;;;2365342;53;20918;-74
2022/12/01 06:03:23;;;;;;;10.32;4.80;;;8.20;71.80;;;;;;2570945;52;20926;-75
2022/12/01 06:05:50;;;;;;;10.88;5.95;;;8.20;71.70;;;;;;2365072;53;20983;-73
2022/12/01 06:08:16;;;;;;;12.15;6.37;;;8.20;71.70;;;;;;2524136;52;20990;-73
2022/12/01 06:10:44;;;;;;;10.68;5.32;;;8.20;71.70;;;;;;2365050;54;21065;-74
2022/12/01 06:13:10;;;;;;;12.63;6.30;;;8.20;71.60;;;;;;2472284;52;20970;-73
2022/12/01 06:15:37;;;;;;;10.23;5.47;;;8.20;71.60;;;;;;2365486;53;21009;-72
2022/12/01 06:18:03;;;;;;;10.82;5.50;;;8.20;71.60;;;;;;2594493;52;20928;-73
2022/12/01 06:20:30;;;;;;;9.63;5.22;;;8.20;71.60;;;;;;2570830;52;21044;-75
2022/12/01 06:22:58;;;;;;;9.73;5.15;;;8.10;71.60;;;;;;2608916;52;21502;-75
2022/12/01 06:25:24;;;;;;;9.98;5.00;;;8.10;71.70;;;;;;2323964;54;20904;-75
2022/12/01 06:27:56;;;;;;;8.88;4.55;;;8.10;71.70;;;;;;2606793;52;20937;-76
2022/12/01 06:30:23;;;;;;;;;;;8.10;71.70;;;;;;2341028;54;21494;-74
2022/12/01 06:32:53;;;;;;;10.05;4.85;;;8.10;70.80;;;;;;2461875;53;20110;-75
2022/12/01 06:35:19;;;;;;;9.35;5.12;;;8.10;71.70;;;;;;2615541;52;21908;-76
2022/12/01 06:37:46;;;;;;;12.27;5.22;;;8.10;71.70;;;;;;2364848;53;21002;-74
2022/12/01 06:40:13;;;;;;;10.45;5.20;;;8.10;71.70;;;;;;2353074;52;21019;-72
2022/12/01 06:42:40;;;;;;;10.85;5.00;;;8.10;71.70;;;;;;2579306;52;20968;-73
2022/12/01 06:45:09;;;;;;;11.40;5.90;;;8.10;71.70;;;;;;2434986;52;20933;-73
2022/12/01 06:47:36;;;;;;;11.27;5.60;;;8.10;71.70;;;;;;2411893;52;21008;-74
2022/12/01 06:50:10;;;;;;;12.25;6.30;;;8.10;71.70;;;;;;2414782;53;20931;-76
2022/12/01 06:52:37;;;;;;;12.50;5.62;;;8.00;71.40;;;;;;2614091;52;20938;-72
2022/12/01 06:55:05;;;;;;;12.35;5.78;;;8.00;71.50;;;;;;2364710;53;21746;-76
2022/12/01 06:57:31;;;;;;;13.38;6.50;;;8.00;71.50;;;;;;2453106;52;20958;-75
2022/12/01 06:59:58;;;;;;;13.35;6.90;;;8.00;71.50;;;;;;2503802;52;20955;-74
2022/12/01 07:02:25;;;;;;;11.02;5.53;;;8.00;71.60;;;;;;2374771;53;21609;-74
2022/12/01 07:04:52;;;;;;;12.50;5.82;;;8.00;71.60;;;;;;2325572;54;21791;-76
2022/12/01 07:07:18;;;;;;;12.37;5.47;;;8.00;71.60;;;;;;2582890;53;20981;-73
2022/12/01 07:09:45;;;;;;;10.18;5.20;;;8.00;71.70;;;;;;2368743;53;22346;-74
2022/12/01 07:12:11;;;;;;;11.50;5.57;;;8.00;71.70;;;;;;2361083;53;21012;-73
2022/12/01 07:14:41;;;;;;;10.85;5.85;;;8.00;71.80;;;;;;2610679;52;20954;-72
2022/12/01 07:17:08;;;;;;;10.57;5.65;;;8.00;71.90;;;;;;2365071;53;20918;-74
2022/12/01 07:19:45;;;;;;;11.35;5.57;;;8.00;71.90;;;;;;2365302;53;20970;-74
2022/12/01 07:22:12;;;;;;;11.85;5.30;;;8.00;71.60;;;;;;2511303;52;21427;-74
2022/12/01 07:24:39;;;;;;;13.48;6.35;;;8.00;71.80;;;;;;2365138;53;20914;-76
2022/12/01 07:27:06;;;;;;;12.40;6.10;;;8.00;71.80;;;;;;2615978;52;20938;-74
2022/12/01 07:29:32;;;;;;;13.73;6.60;;;8.00;71.80;;;;;;2365086;53;21027;-73
2022/12/01 07:31:59;;;;;;;11.32;6.20;;;8.00;71.80;;;;;;2370845;52;20983;-73
2022/12/01 07:34:25;;;;;;;12.43;5.75;;;8.00;71.70;;;;;;2364672;53;20906;-75
2022/12/01 07:36:54;;;;;;;13.45;6.45;;;7.90;71.70;;;;;;2363251;53;20959;-73
2022/12/01 07:39:20;;;;;;;12.13;6.72;;;7.90;71.60;;;;;;2358185;53;21859;-75
2022/12/01 07:41:47;;;;;;;14.20;6.53;;;7.90;71.60;;;;;;2523827;52;21563;-74
2022/12/01 07:44:14;;;;;;;12.40;6.45;;;7.90;71.70;;;;;;2367072;53;21388;-74
2022/12/01 07:46:41;;;;;;;11.40;6.07;;;7.90;71.70;;;;;;2587383;52;20973;-73
2022/12/01 07:49:10;;;;;;;11.55;5.80;;;7.90;71.70;;;;;;2335734;54;21001;-75
2022/12/01 07:51:37;;;;;;;13.15;6.57;;;7.90;71.80;;;;;;2337504;54;21859;-73
2022/12/01 07:54:05;;;;;;;10.63;5.78;;;8.00;71.90;;;;;;2336632;53;20917;-75
2022/12/01 07:56:32;;;;;;;13.18;6.45;;;7.90;71.80;;;;;;2427462;53;21473;-75
2022/12/01 07:59:00;;;;;;;13.07;6.65;;;7.90;71.80;;;;;;2337130;53;20989;-73
2022/12/01 08:01:29;;;;;;;10.82;5.47;;;7.90;71.80;;;;;;2582852;53;20957;-77
2022/12/01 08:03:57;;;;;;;11.20;6.05;;;7.90;71.80;;;;;;2337637;53;20929;-73
2022/12/01 08:06:24;;;;;;;17.42;6.68;;;7.90;71.90;;;;;;2434640;53;20972;-75
2022/12/01 08:08:51;;;;;;;11.50;6.15;;;7.90;71.90;;;;;;2337389;53;20984;-75
2022/12/01 08:11:28;;;;;;;11.88;5.95;;;7.90;72.00;;;;;;2550706;52;21340;-74
2022/12/01 08:13:57;;;;;;;10.63;5.68;;;7.90;71.90;;;;;;2581663;53;21742;-76
2022/12/01 08:16:25;;;;;;;10.57;5.53;;;7.90;72.10;;;;;;2585421;52;20920;-77
2022/12/01 08:18:52;;;;;;;11.38;5.55;;;7.90;72.20;;;;;;2364875;53;21789;-76
2022/12/01 08:21:19;;;;;;;11.00;5.53;;;8.00;72.30;;;;;;2364589;53;20939;-75
2022/12/01 08:23:45;;;;;;;12.60;6.18;;;8.00;72.20;;;;;;2364812;53;21772;-72
2022/12/01 08:26:16;;;;;;;12.60;6.75;;;8.00;72.20;;;;;;2365247;53;20978;-75
2022/12/01 08:28:43;;;;;;;12.82;6.70;;;8.00;72.10;;;;;;2364858;53;21033;-73
2022/12/01 08:31:20;;;;;;;12.77;6.25;;;8.00;72.20;;;;;;2364312;53;21010;-72
2022/12/01 08:33:47;;;;;;;12.15;6.03;;;8.10;72.20;;;;;;2365357;53;20934;-75
2022/12/01 08:36:14;;;;;;;13.65;6.65;;;8.00;72.20;;;;;;2616554;52;20930;-76
2022/12/01 08:38:46;;;;;;;13.20;7.37;;;8.10;72.30;;;;;;2365343;53;20970;-76
2022/12/01 08:41:13;;;;;;;11.93;6.25;;;8.10;72.20;;;;;;2457394;52;20917;-73
2022/12/01 08:43:41;;;;;;;13.45;6.62;;;8.10;72.10;;;;;;2441042;52;20926;-73
2022/12/01 08:46:39;;;;;;;11.73;6.32;;;8.10;72.10;;;;;;2363245;53;20993;-73
2022/12/01 08:49:06;;;;;;;13.05;6.47;;;8.10;71.70;;;;;;2364189;53;20959;-76
2022/12/01 08:51:33;;;;;;;12.27;6.47;;;8.10;72.10;;;;;;2613499;52;20971;-74
2022/12/01 08:54:00;;;;;;;12.55;6.15;;;8.10;72.10;;;;;;2356199;53;21793;-74
2022/12/01 08:56:33;;;;;;;11.93;6.18;;;8.10;72.10;;;;;;2616524;52;20958;-73
2022/12/01 08:58:59;;;;;;;13.88;6.65;;;8.10;72.10;;;;;;2365358;53;20883;-75
2022/12/01 09:01:27;;;;;;;11.32;5.97;;;8.10;72.10;;;;;;2365443;53;20895;-75
2022/12/01 09:04:07;;;;;;;13.40;7.00;;;8.10;72.20;;;;;;2365179;53;21827;-73
2022/12/01 09:06:43;;;;;;;12.93;6.40;;;8.10;72.10;;;;;;2365904;53;21014;-76
2022/12/01 09:09:13;;;;;;;13.55;6.47;;;8.10;71.80;;;;;;2364916;53;20918;-76
2022/12/01 09:11:40;;;;;;;14.10;7.00;;;8.10;72.00;;;;;;2365644;53;21002;-73
2022/12/01 09:14:06;;;;;;;13.38;6.55;;;8.10;72.00;;;;;;2383708;52;20899;-74
2022/12/01 09:16:33;;;;;;;11.77;6.07;;;8.20;72.10;;;;;;2613647;52;21036;-76
2022/12/01 09:19:00;;;;;;;14.25;6.78;;;8.10;72.00;;;;;;2606099;52;20886;-73
2022/12/01 09:21:31;;;;;;;12.88;7.00;;;8.20;72.10;;;;;;2365599;53;20958;-75
2022/12/01 09:23:58;;;;;;;13.38;7.05;;;8.10;72.00;;;;;;2363524;53;20968;-73
2022/12/01 09:26:25;;;;;;;13.45;6.55;;;8.20;72.10;;;;;;2434100;52;21029;-74
2022/12/01 09:28:54;;;;;;;15.07;7.22;;;8.20;72.10;;;;;;2336472;54;21024;-74
2022/12/01 09:31:24;;;;;;;15.75;7.50;;;8.10;72.00;;;;;;2365930;53;20932;-73
2022/12/01 09:34:07;;;;;;;15.43;7.57;;;8.20;72.10;;;;;;2365661;54;20992;-76
2022/12/01 09:36:34;;;;;;;14.57;7.57;;;8.20;71.70;;;;;;2365437;54;20916;-74
2022/12/01 09:39:00;;;;;;;13.02;6.87;;;8.20;72.80;;;;;;2616582;52;20909;-74
2022/12/01 09:41:47;;;;;;;16.40;7.62;;;8.20;72.20;;;;;;2324085;54;20936;-74
2022/12/01 09:45:01;;;;;;;14.40;7.65;;;8.20;71.80;;;;;;2582558;53;20941;-76
2022/12/01 09:47:34;;;;;;;14.15;7.18;;;8.20;71.30;;;;;;2333596;53;20949;-75
2022/12/01 09:50:14;;;;;;;16.12;7.37;;;8.20;71.90;;;;;;2334096;53;21028;-73
2022/12/01 09:52:52;;;;;;;13.02;6.07;;;8.20;71.90;;;;;;2559175;53;20930;-75
2022/12/01 09:55:20;;;;;;;13.68;7.15;;;8.20;71.90;;;;;;2337594;53;20961;-76
2022/12/01 09:57:47;;;;;;;12.77;6.20;;;8.20;72.10;;;;;;2336823;53;20973;-76
2022/12/01 10:00:24;;;;;;;14.27;6.85;;;8.20;72.20;;;;;;2336206;53;21841;-74
2022/12/01 10:03:48;;;;;;;15.02;7.10;;;8.30;72.20;;;;;;2339222;53;20924;-75
2022/12/01 10:06:18;;;;;;;16.50;7.75;;;8.30;72.00;;;;;;2366175;53;21114;-74
2022/12/01 10:09:18;;;;;;;13.52;7.00;;;8.30;72.40;;;;;;2353293;53;20954;-76
2022/12/01 10:11:45;;;;;;;15.80;7.80;;;8.30;72.00;;;;;;2365502;53;21842;-72
2022/12/01 10:14:16;;;;;;;17.65;8.75;;;8.30;72.50;;;;;;2364737;53;20994;-73
2022/12/01 10:25:00;;;;;;;16.85;8.38;;;8.40;72.60;;;;;;2364899;53;21509;-72
2022/12/01 10:28:06;;;;;;;10.38;4.97;;;8.40;71.50;;;;;;2364616;53;20986;-74
2022/12/01 10:30:38;;;;;;;10.88;5.35;;;8.50;71.90;;;;;;2365124;53;20983;-73
2022/12/01 10:33:26;;;;;;;13.27;6.32;;;8.50;72.20;;;;;;2357266;53;20943;-75
2022/12/01 10:35:52;;;;;;;12.25;6.43;;;8.50;71.70;;;;;;2615833;52;20994;-74
2022/12/01 10:38:26;;;;;;;14.00;6.35;;;8.50;72.20;;;;;;2364220;53;20926;-73
2022/12/01 10:40:53;;;;;;;13.20;7.37;;;8.50;71.90;;;;;;2363905;53;21518;-73
2022/12/01 10:43:26;;;;;;;14.80;7.28;;;8.40;71.90;;;;;;2364450;53;20999;-75
2022/12/01 10:45:53;;;;;;;14.98;7.12;;;8.40;71.80;;;;;;2364889;53;21008;-73
2022/12/01 10:48:21;;;;;;;12.07;6.68;;;8.50;71.90;;;;;;2364429;53;21274;-74
2022/12/01 10:50:56;;;;;;;16.55;7.37;;;8.40;72.00;;;;;;2364702;53;21057;-76
2022/12/01 10:53:35;;;;;;;12.40;7.10;;;8.50;71.80;;;;;;2616135;52;20986;-76
2022/12/01 10:56:22;;;;;;;13.20;6.97;;;8.50;71.90;;;;;;2365612;53;20935;-75
2022/12/01 10:58:53;;;;;;;14.23;7.03;;;8.50;71.60;;;;;;2364680;53;20943;-74
2022/12/01 11:01:28;;;;;;;15.25;8.02;;;8.50;71.90;;;;;;2364749;53;20934;-72
2022/12/01 11:05:31;;;;;;;12.43;6.72;;;8.50;72.10;;;;;;2364738;53;20899;-74
2022/12/01 11:07:57;;;;;;;12.15;5.72;;;8.50;72.70;;;;;;2365252;53;20930;-76
2022/12/01 11:10:31;;;;;;;13.20;7.07;;;8.50;71.90;;;;;;2484429;52;21021;-74
2022/12/01 11:13:27;;;;;;;12.20;6.62;;;8.50;71.80;;;;;;2365181;53;21673;-75
2022/12/01 11:15:55;;;;;;;15.18;6.90;;;8.50;72.10;;;;;;2364980;53;21715;-76
2022/12/01 11:18:23;;;;;;;13.32;7.05;;;8.50;72.00;;;;;;2364839;53;21002;-72
2022/12/01 11:21:11;;;;;;;14.98;7.65;;;8.50;72.00;;;;;;2365203;53;21778;-73
2022/12/01 11:23:45;;;;;;;14.40;7.07;;;8.50;71.60;;;;;;2550684;52;20956;-75
2022/12/01 11:28:03;;;;;;;14.85;8.00;;;8.50;71.80;;;;;;2359712;53;20931;-73
2022/12/01 11:30:30;;;;;;;14.38;7.00;;;8.50;70.90;;;;;;2337184;53;20925;-73
2022/12/01 11:33:01;;;;;;;14.18;7.60;;;8.50;72.00;;;;;;2336712;53;20913;-74
2022/12/01 11:35:29;;;;;;;12.75;6.78;;;8.50;72.00;;;;;;2606851;52;20975;-76
2022/12/01 11:37:57;;;;;;;15.40;8.23;;;8.50;72.10;;;;;;2364229;53;22023;-75
2022/12/01 11:40:56;;;;;;;17.90;8.25;;;8.50;72.20;;;;;;2363355;53;20903;-75
2022/12/01 11:43:33;;;;;;;15.43;7.70;;;8.50;72.20;;;;;;2449502;52;20922;-73
2022/12/01 11:46:04;;;;;;;14.65;7.35;;;8.60;72.30;;;;;;2364599;53;20995;-76
2022/12/01 11:48:35;;;;;;;15.43;8.40;;;8.60;72.40;;;;;;2365353;53;20926;-76
2022/12/01 11:54:34;;;;;;;15.23;8.10;;;8.60;72.40;;;;;;2365432;53;20931;-76
2022/12/01 11:57:00;;;;;;;12.80;5.95;;;8.60;72.20;;;;;;2364871;53;21516;-72
2022/12/01 11:59:56;;;;;;;12.88;6.68;;;8.60;72.00;;;;;;2364684;53;20878;-73
2022/12/01 12:02:54;;;;;;;14.45;7.78;;;8.60;72.00;;;;;;2364727;53;20963;-73
2022/12/01 12:05:47;;;;;;;14.73;7.30;;;8.70;71.60;;;;;;2615633;52;20938;-73
2022/12/01 12:10:52;;;;;;;;;;;8.60;71.70;;;;;;2368594;53;20953;-75
2022/12/01 12:14:58;;;;;;;19.60;6.00;;;8.60;71.00;;;;;;2517690;52;20157;-74
2022/12/01 12:19:10;;;;;;;12.73;6.12;;;8.70;71.70;;;;;;2364486;53;20974;-74
2022/12/01 12:24:26;;;;;;;14.25;6.37;;;8.60;71.50;;;;;;2616141;52;20899;-74
2022/12/01 12:30:35;;;;;;;14.45;7.45;;;8.60;71.10;;;;;;2616223;52;20924;-71
2022/12/01 12:33:26;;;;;;;11.30;5.47;;;8.70;71.60;;;;;;2524575;53;20929;-75
2022/12/01 12:36:03;;;;;;;12.68;6.70;;;8.60;71.50;;;;;;2310940;54;21437;-74
2022/12/01 12:40:13;;;;;;;13.60;7.10;;;8.60;71.80;;;;;;2595268;52;20911;-74
2022/12/01 12:42:53;;;;;;;14.45;7.40;;;8.60;71.00;;;;;;2560005;52;20936;-75
2022/12/01 12:47:06;;;;;;;12.90;6.80;;;8.60;71.90;;;;;;2614599;52;20950;-75
2022/12/01 12:49:46;;;;;;;14.33;6.70;;;8.60;71.00;;;;;;2360954;53;20952;-73
2022/12/01 12:52:28;;;;;;;14.15;6.85;;;8.60;71.90;;;;;;2430094;52;20935;-75
2022/12/01 12:54:58;;;;;;;15.13;8.20;;;8.60;72.10;;;;;;2365444;53;20935;-77
2022/12/01 12:57:33;;;;;;;16.30;8.18;;;8.60;72.10;;;;;;2406920;53;20969;-75
2022/12/01 13:00:22;;;;;;;13.82;7.00;;;8.60;72.00;;;;;;2328421;53;21262;-74
2022/12/01 13:02:56;;;;;;;15.75;8.55;;;8.60;71.50;;;;;;2581679;52;21049;-73
2022/12/01 13:06:10;;;;;;;17.45;9.57;;;8.60;71.80;;;;;;2373111;53;21365;-76
2022/12/01 13:08:52;;;;;;;17.60;9.25;;;8.50;70.90;;;;;;2432159;53;21737;-76
2022/12/01 13:11:23;;;;;;;17.25;8.60;;;8.50;71.20;;;;;;2556663;53;20953;-74
2022/12/01 13:16:45;;;;;;;19.30;9.60;;;8.50;71.40;;;;;;2340909;53;20964;-74
2022/12/01 13:19:19;;;;;;;14.13;7.78;;;8.50;71.00;;;;;;2339049;53;21060;-74
2022/12/01 13:21:46;;;;;;;15.43;8.02;;;8.50;71.50;;;;;;2364805;53;21999;-75
2022/12/01 13:24:23;;;;;;;17.00;8.48;;;8.40;71.40;;;;;;2364738;53;20935;-74
2022/12/01 13:26:58;;;;;;;15.63;8.18;;;8.40;71.50;;;;;;2369046;52;20907;-75
2022/12/01 13:29:24;;;;;;;15.75;8.43;;;8.40;71.40;;;;;;2529212;52;21415;-74
2022/12/01 13:31:51;;;;;;;15.10;7.65;;;8.40;71.60;;;;;;2364651;52;21188;-76
2022/12/01 13:34:38;;;;;;;14.32;7.75;;;8.40;71.60;;;;;;2363659;53;20950;-75
2022/12/01 13:37:05;;;;;;;15.75;7.70;;;8.40;71.60;;;;;;2615586;52;21972;-76
2022/12/01 13:39:35;;;;;;;13.27;6.93;;;8.30;71.70;;;;;;2364454;53;20910;-76
2022/12/01 13:43:54;;;;;;;13.13;7.53;;;8.30;71.80;;;;;;2413609;52;21011;-76
2022/12/01 13:46:22;;;;;;;13.00;6.37;;;8.30;71.90;;;;;;2399714;52;20926;-73
2022/12/01 13:48:51;;;;;;;12.60;6.12;;;8.40;72.10;;;;;;2489807;52;20902;-75
2022/12/01 13:51:18;;;;;;;11.68;6.37;;;8.40;72.20;;;;;;2448780;52;20966;-73
2022/12/01 13:54:18;;;;;;;14.85;6.85;;;8.40;72.20;;;;;;2599767;52;20942;-74
2022/12/01 13:56:45;;;;;;;14.55;7.40;;;8.40;71.90;;;;;;2392026;52;21447;-76
2022/12/01 13:59:40;;;;;;;15.18;8.23;;;8.40;72.10;;;;;;2364938;53;20918;-73
2022/12/01 14:02:20;;;;;;;13.20;7.15;;;8.40;71.40;;;;;;2364510;53;20931;-75
2022/12/01 14:04:46;;;;;;;15.27;7.40;;;8.50;71.50;;;;;;2468481;52;21026;-75
2022/12/01 14:07:33;;;;;;;13.95;7.50;;;8.40;71.80;;;;;;2364627;53;21372;-73
2022/12/01 14:13:31;;;;;;;13.13;7.50;;;8.40;71.50;;;;;;2616226;52;20931;-76
2022/12/01 14:15:59;;;;;;;13.52;7.03;;;8.40;70.80;;;;;;2364585;53;21432;-74
2022/12/01 14:18:44;;;;;;;14.50;7.40;;;8.40;71.60;;;;;;2616050;52;20962;-73
2022/12/01 14:21:11;;;;;;;14.30;7.45;;;8.40;71.30;;;;;;2364876;53;20923;-75
2022/12/01 14:23:58;;;;;;;15.48;7.72;;;8.30;71.50;;;;;;2616215;52;21732;-73
2022/12/01 14:26:27;;;;;;;14.23;7.28;;;8.40;71.10;;;;;;2364601;53;21125;-76
2022/12/01 14:29:42;;;;;;;15.98;7.87;;;8.30;71.50;;;;;;2616275;52;20958;-74